createdAt,value
2019-04-29T00:02:31.756Z,55.01
2019-04-29T00:05:05.495Z,55.06
2019-04-29T00:07:37.892Z,55.44
2019-04-29T00:10:11.686Z,56.21
2019-04-29T00:12:43.562Z,56.53
2019-04-29T00:15:18.269Z,56.95
2019-04-29T00:17:54.562Z,57.55
2019-04-29T00:20:33.681Z,57.47
2019-04-29T00:23:06.384Z,57.34
2019-04-29T00:25:39.582Z,57.33
2019-04-29T00:28:13.109Z,57.53
2019-04-29T00:30:48.935Z,57.76
2019-04-29T00:33:20.781Z,57.59
2019-04-29T00:35:52.456Z,57.71
2019-04-29T00:38:41.478Z,57.87
2019-04-29T00:41:14.781Z,58.15
2019-04-29T00:43:48.042Z,58.33
2019-04-29T00:46:19.970Z,58.29
2019-04-29T00:48:51.720Z,58.22
2019-04-29T00:51:24.900Z,58.33
2019-04-29T00:53:58.320Z,57.99
2019-04-29T00:56:30.013Z,58.04
2019-04-29T00:59:01.790Z,58.16
2019-04-29T01:01:34.671Z,58.18
2019-04-29T01:04:06.472Z,57.40
2019-04-29T01:06:38.276Z,57.68
2019-04-29T01:09:12.642Z,57.63
2019-04-29T01:11:44.374Z,58.05
2019-04-29T01:14:16.600Z,58.62
2019-04-29T01:16:48.689Z,59.15
2019-04-29T01:19:20.369Z,58.85
2019-04-29T01:21:52.012Z,58.89
2019-04-29T01:24:23.767Z,59.35
2019-04-29T01:26:57.907Z,59.41
2019-04-29T01:29:31.188Z,59.35
2019-04-29T01:32:08.258Z,60.05
2019-04-29T01:34:44.475Z,60.25
2019-04-29T01:37:18.957Z,60.09
2019-04-29T01:39:53.466Z,60.44
2019-04-29T01:42:26.990Z,60.87
2019-04-29T01:45:00.330Z,60.89
2019-04-29T01:47:32.272Z,60.83
2019-04-29T01:50:05.137Z,60.94
2019-04-29T01:52:36.897Z,60.87
2019-04-29T01:55:08.742Z,61.15
2019-04-29T01:57:40.516Z,61.16
2019-04-29T02:00:13.192Z,61.04
2019-04-29T02:02:45.095Z,60.90
2019-04-29T02:05:16.730Z,61.07
2019-04-29T02:07:48.551Z,60.91
2019-04-29T02:10:21.787Z,61.18
2019-04-29T02:12:53.469Z,61.00
2019-04-29T02:15:25.276Z,60.86
2019-04-29T02:18:00.733Z,60.93
2019-04-29T02:20:32.316Z,60.98
2019-04-29T02:23:26.935Z,61.36
2019-04-29T02:26:11.408Z,61.46
2019-04-29T02:28:43.012Z,61.67
2019-04-29T02:31:32.949Z,61.91
2019-04-29T02:34:04.929Z,62.30
2019-04-29T02:36:38.987Z,62.07
2019-04-29T02:39:14.030Z,62.01
2019-04-29T02:41:53.178Z,61.81
2019-04-29T02:44:44.427Z,62.19
2019-04-29T02:47:29.319Z,62.82
2019-04-29T02:50:01.588Z,63.23
2019-04-29T02:52:33.597Z,63.62
2019-04-29T02:55:08.582Z,63.65
2019-04-29T02:57:42.075Z,63.80
2019-04-29T03:00:16.332Z,64.49
2019-04-29T03:03:02.136Z,63.30
2019-04-29T03:05:41.420Z,62.11
2019-04-29T03:08:13.118Z,61.62
2019-04-29T03:10:45.028Z,62.42
2019-04-29T03:13:18.986Z,62.50
2019-04-29T03:15:51.971Z,61.74
2019-04-29T03:18:26.466Z,62.32
2019-04-29T03:21:02.796Z,62.96
2019-04-29T03:23:34.840Z,63.42
2019-04-29T03:26:08.059Z,63.71
2019-04-29T03:28:41.141Z,62.72
2019-04-29T03:31:13.097Z,62.52
2019-04-29T03:33:44.934Z,62.84
2019-04-29T03:36:17.432Z,63.28
2019-04-29T03:38:50.863Z,63.31
2019-04-29T03:41:23.480Z,62.31
2019-04-29T03:43:56.430Z,61.22
2019-04-29T03:46:28.342Z,58.04
2019-04-29T03:49:00.385Z,56.36
2019-04-29T03:51:32.330Z,55.58
2019-04-29T03:54:04.564Z,54.51
2019-04-29T03:56:36.585Z,54.40
2019-04-29T03:59:09.599Z,52.85
2019-04-29T04:01:42.948Z,50.26
2019-04-29T04:04:23.737Z,48.86
2019-04-29T04:07:03.858Z,46.32
2019-04-29T04:09:35.727Z,44.48
2019-04-29T04:12:07.587Z,44.87
2019-04-29T04:14:39.820Z,42.13
2019-04-29T04:17:13.334Z,40.62
2019-04-29T04:19:45.451Z,38.60
2019-04-29T04:22:17.446Z,37.41
2019-04-29T04:24:52.019Z,38.25
2019-04-29T04:27:23.811Z,37.63
2019-04-29T04:29:56.030Z,37.08
2019-04-29T04:32:27.945Z,37.56
2019-04-29T04:35:01.062Z,36.46
2019-04-29T04:37:34.120Z,36.03
2019-04-29T04:40:09.606Z,35.83
2019-04-29T04:42:42.273Z,35.43
2019-04-29T04:45:14.729Z,34.45
2019-04-29T04:47:48.485Z,33.37
2019-04-29T04:50:26.648Z,32.30
2019-04-29T04:52:58.881Z,34.18
2019-04-29T04:55:33.163Z,33.13
2019-04-29T04:58:04.964Z,34.12
2019-04-29T05:00:37.892Z,34.96
2019-04-29T05:03:11.899Z,36.59
2019-04-29T05:05:44.696Z,36.86
2019-04-29T05:08:16.846Z,40.02
2019-04-29T05:10:48.669Z,43.52
2019-04-29T05:13:28.215Z,41.08
2019-04-29T05:15:57.885Z,41.13
2019-04-29T05:18:29.762Z,42.56
2019-04-29T05:21:01.994Z,40.33
2019-04-29T05:23:34.699Z,39.20
2019-04-29T05:26:06.532Z,38.22
2019-04-29T05:28:38.755Z,38.95
2019-04-29T05:31:12.140Z,38.34
2019-04-29T05:33:44.321Z,38.30
2019-04-29T05:36:19.474Z,38.24
2019-04-29T05:38:56.731Z,38.67
2019-04-29T05:41:30.181Z,38.38
2019-04-29T05:44:08.846Z,36.88
2019-04-29T05:46:42.277Z,38.66
2019-04-29T05:49:17.805Z,37.89
2019-04-29T05:51:51.276Z,41.66
2019-04-29T05:54:31.727Z,40.50
2019-04-29T05:57:04.280Z,41.06
2019-04-29T05:59:36.150Z,40.52
2019-04-29T06:02:16.991Z,40.60
2019-04-29T06:04:52.411Z,40.65
2019-04-29T06:07:26.786Z,41.09
2019-04-29T06:09:57.629Z,41.06
2019-04-29T06:12:32.913Z,39.98
2019-04-29T06:15:08.849Z,39.55
2019-04-29T06:17:44.899Z,41.23
2019-04-29T06:20:17.548Z,39.60
2019-04-29T06:22:48.469Z,39.66
2019-04-29T06:25:20.214Z,41.61
2019-04-29T06:27:53.564Z,42.51
2019-04-29T06:30:26.828Z,42.79
2019-04-29T06:33:01.358Z,42.43
2019-04-29T06:35:34.086Z,45.37
2019-04-29T06:38:09.000Z,44.30
2019-04-29T06:40:44.155Z,42.81
2019-04-29T06:43:18.531Z,43.12
2019-04-29T06:45:50.403Z,44.21
2019-04-29T06:48:22.727Z,43.83
2019-04-29T06:50:54.559Z,45.24
2019-04-29T06:53:26.489Z,45.94
2019-04-29T06:55:58.210Z,44.24
2019-04-29T06:58:32.485Z,43.66
2019-04-29T07:01:04.971Z,44.93
2019-04-29T07:03:41.065Z,45.06
2019-04-29T07:06:12.920Z,45.17
2019-04-29T07:08:47.043Z,45.21
2019-04-29T07:11:20.576Z,45.82
2019-04-29T07:13:57.566Z,44.99
2019-04-29T07:16:32.046Z,46.47
2019-04-29T07:19:06.125Z,46.87
2019-04-29T07:21:41.777Z,45.92
2019-04-29T07:24:15.397Z,45.47
2019-04-29T07:26:52.326Z,46.26
2019-04-29T07:29:30.897Z,46.79
2019-04-29T07:31:59.663Z,49.72
2019-04-29T07:34:39.100Z,48.07
2019-04-29T07:37:10.733Z,48.40
2019-04-29T07:39:42.490Z,47.64
2019-04-29T07:42:14.215Z,50.14
2019-04-29T07:44:48.885Z,49.32
2019-04-29T07:47:24.998Z,48.90
2019-04-29T07:49:55.091Z,49.52
2019-04-29T07:52:27.606Z,49.48
2019-04-29T07:55:00.432Z,48.66
2019-04-29T07:57:32.493Z,46.92
2019-04-29T08:00:12.370Z,47.18
2019-04-29T08:02:43.828Z,46.94
2019-04-29T08:05:17.503Z,46.74
2019-04-29T08:07:51.029Z,48.41
2019-04-29T08:10:28.598Z,49.02
2019-04-29T08:13:02.514Z,48.24
2019-04-29T08:15:36.818Z,48.98
2019-04-29T08:18:11.402Z,49.49
2019-04-29T08:20:43.085Z,50.16
2019-04-29T08:23:14.748Z,49.58
2019-04-29T08:25:51.029Z,49.58
2019-04-29T08:28:23.418Z,51.08
2019-04-29T08:30:56.279Z,51.39
2019-04-29T08:33:28.950Z,52.81
2019-04-29T08:36:02.661Z,55.61
2019-04-29T08:38:35.624Z,54.99
2019-04-29T08:41:07.999Z,56.66
2019-04-29T08:43:47.680Z,57.18
2019-04-29T08:46:22.565Z,57.50
2019-04-29T08:48:54.464Z,57.90
2019-04-29T08:51:28.102Z,58.15
2019-04-29T08:54:01.389Z,58.78
2019-04-29T08:56:35.361Z,59.16
2019-04-29T08:59:08.319Z,60.28
2019-04-29T09:01:40.234Z,62.29
2019-04-29T09:04:12.010Z,63.69
2019-04-29T09:06:43.895Z,64.70
2019-04-29T09:09:28.667Z,64.94
2019-04-29T09:11:52.488Z,64.55
2019-04-29T09:14:24.271Z,64.19
2019-04-29T09:16:56.129Z,64.61
2019-04-29T09:19:28.715Z,65.43
2019-04-29T09:22:03.994Z,66.32
2019-04-29T09:24:39.106Z,67.27
2019-04-29T09:27:17.605Z,67.45
2019-04-29T09:29:54.221Z,69.10
2019-04-29T09:32:24.562Z,71.15
2019-04-29T09:34:59.467Z,72.53
2019-04-29T09:37:30.560Z,72.05
2019-04-29T09:40:07.392Z,73.53
2019-04-29T09:42:50.243Z,73.26
2019-04-29T09:45:38.658Z,72.76
2019-04-29T09:48:12.905Z,71.60
2019-04-29T09:50:45.348Z,68.04
2019-04-29T09:53:19.821Z,65.60
2019-04-29T09:55:54.790Z,63.49
2019-04-29T09:58:26.603Z,60.63
2019-04-29T10:00:59.979Z,61.75
2019-04-29T10:03:33.467Z,62.13
2019-04-29T10:06:23.165Z,58.26
2019-04-29T10:08:54.969Z,58.94
2019-04-29T10:11:27.754Z,59.40
2019-04-29T10:13:59.539Z,60.62
2019-04-29T10:16:36.048Z,60.77
2019-04-29T10:19:29.150Z,62.38
2019-04-29T10:22:01.124Z,61.75
2019-04-29T10:24:35.021Z,62.73
2019-04-29T10:27:08.834Z,61.50
2019-04-29T10:29:46.119Z,61.67
2019-04-29T10:32:21.082Z,60.63
2019-04-29T10:34:55.241Z,59.54
2019-04-29T10:37:32.547Z,58.53
2019-04-29T10:40:11.791Z,58.98
2019-04-29T10:42:51.569Z,58.34
2019-04-29T10:45:24.816Z,60.09
2019-04-29T10:48:14.494Z,61.71
2019-04-29T10:50:51.993Z,61.23
2019-04-29T10:53:24.801Z,60.54
2019-04-29T10:55:56.652Z,62.05
2019-04-29T10:58:35.176Z,62.34
2019-04-29T11:01:20.770Z,62.37
2019-04-29T11:03:55.927Z,62.59
2019-04-29T11:06:31.448Z,63.76
2019-04-29T11:09:09.644Z,63.81
2019-04-29T11:11:45.501Z,65.54
2019-04-29T11:14:18.798Z,66.50
2019-04-29T11:16:54.035Z,66.20
2019-04-29T11:19:26.675Z,65.45
2019-04-29T11:22:03.306Z,67.70
2019-04-29T11:24:48.740Z,65.73
2019-04-29T11:27:23.194Z,67.05
2019-04-29T11:30:02.784Z,65.91
2019-04-29T11:32:35.641Z,66.22
2019-04-29T11:35:11.202Z,66.76
2019-04-29T11:37:43.267Z,67.03
2019-04-29T11:40:26.112Z,66.32
2019-04-29T11:42:55.148Z,66.44
2019-04-29T11:45:28.915Z,68.55
2019-04-29T11:48:00.671Z,68.89
2019-04-29T11:50:34.192Z,69.24
2019-04-29T11:53:06.803Z,68.84
2019-04-29T11:55:42.710Z,68.13
2019-04-29T11:58:21.442Z,67.21
2019-04-29T12:00:57.949Z,66.83
2019-04-29T12:03:43.048Z,66.93
2019-04-29T12:06:20.528Z,66.80
2019-04-29T12:08:53.214Z,67.06
2019-04-29T12:11:28.715Z,67.47
2019-04-29T12:14:20.136Z,67.22
2019-04-29T12:17:12.046Z,67.27
2019-04-29T12:19:51.099Z,66.53
2019-04-29T12:22:30.732Z,66.32
2019-04-29T12:25:05.524Z,66.82
2019-04-29T12:27:39.224Z,69.78
2019-04-29T12:30:13.204Z,68.44
2019-04-29T12:33:01.353Z,67.47
2019-04-29T12:35:52.330Z,68.29
2019-04-29T12:38:39.750Z,67.63
2019-04-29T12:41:29.665Z,68.92
2019-04-29T12:44:05.322Z,68.97
2019-04-29T12:46:46.791Z,66.94
2019-04-29T12:49:22.481Z,68.50
2019-04-29T12:51:56.192Z,68.88
2019-04-29T12:54:28.020Z,67.92
2019-04-29T12:57:00.428Z,70.41
2019-04-29T12:59:35.570Z,71.02
2019-04-29T13:02:14.297Z,71.42
2019-04-29T13:04:51.534Z,71.14
2019-04-29T13:07:35.383Z,71.83
2019-04-29T13:10:17.147Z,71.81
2019-04-29T13:12:52.366Z,72.98
2019-04-29T13:15:43.629Z,73.02
2019-04-29T13:18:23.082Z,73.96
2019-04-29T13:20:52.197Z,75.42
2019-04-29T13:23:36.004Z,75.85
2019-04-29T13:25:59.402Z,76.93
2019-04-29T13:28:58.917Z,77.09
2019-04-29T13:31:20.217Z,76.98
2019-04-29T13:33:56.484Z,78.44
2019-04-29T13:36:32.673Z,79.03
2019-04-29T13:39:09.045Z,78.68
2019-04-29T13:41:56.207Z,79.00
2019-04-29T13:44:19.499Z,79.06
2019-04-29T13:47:08.366Z,79.50
2019-04-29T13:49:49.370Z,79.54
2019-04-29T13:52:21.225Z,79.81
2019-04-29T13:54:55.551Z,79.92
2019-04-29T13:57:30.322Z,80.00
2019-04-29T14:00:12.903Z,80.66
2019-04-29T14:02:58.908Z,80.01
2019-04-29T14:05:27.805Z,80.49
2019-04-29T14:08:02.176Z,80.44
2019-04-29T14:10:35.783Z,80.98
2019-04-29T14:13:13.467Z,81.17
2019-04-29T14:15:44.040Z,80.75
2019-04-29T14:18:17.103Z,81.39
2019-04-29T14:20:51.824Z,81.72
2019-04-29T14:23:23.975Z,82.12
2019-04-29T14:25:55.750Z,82.36
2019-04-29T14:28:36.854Z,82.36
2019-04-29T14:31:10.048Z,83.12
2019-04-29T14:34:00.382Z,82.64
2019-04-29T14:36:33.172Z,83.10
2019-04-29T14:39:13.099Z,82.48
2019-04-29T14:41:50.883Z,82.79
2019-04-29T14:44:40.032Z,83.23
2019-04-29T14:47:23.001Z,83.14
2019-04-29T14:49:57.050Z,83.50
2019-04-29T14:52:31.175Z,83.13
2019-04-29T14:55:03.877Z,83.03
2019-04-29T14:57:38.920Z,83.45
2019-04-29T15:00:12.375Z,83.97
2019-04-29T15:02:45.612Z,83.83
2019-04-29T15:05:19.384Z,83.61
2019-04-29T15:07:51.682Z,83.54
2019-04-29T15:10:26.676Z,83.25
2019-04-29T15:13:11.506Z,83.17
2019-04-29T15:16:03.710Z,83.20
2019-04-29T15:18:49.515Z,83.21
2019-04-29T15:21:32.768Z,82.37
2019-04-29T15:24:05.906Z,82.05
2019-04-29T15:26:40.793Z,82.40
2019-04-29T15:29:17.152Z,82.59
2019-04-29T15:31:49.107Z,82.73
2019-04-29T15:34:20.999Z,83.17
2019-04-29T15:36:54.929Z,83.72
2019-04-29T15:39:27.755Z,83.95
2019-04-29T15:42:01.770Z,84.60
2019-04-29T15:44:37.064Z,85.53
2019-04-29T15:47:10.007Z,85.64
2019-04-29T15:49:44.558Z,85.93
2019-04-29T15:52:21.146Z,86.33
2019-04-29T15:54:53.835Z,86.78
2019-04-29T15:57:28.639Z,86.68
2019-04-29T16:00:07.198Z,87.03
2019-04-29T16:02:40.491Z,87.33
2019-04-29T16:05:30.566Z,87.76
2019-04-29T16:08:09.583Z,88.14
2019-04-29T16:11:01.707Z,88.40
2019-04-29T16:13:35.862Z,88.79
2019-04-29T16:16:08.055Z,89.15
2019-04-29T16:18:42.607Z,88.94
2019-04-29T16:21:17.381Z,89.41
2019-04-29T16:23:49.444Z,89.94
2019-04-29T16:26:24.973Z,90.21
2019-04-29T16:29:01.048Z,90.42
2019-04-29T16:31:35.427Z,90.98
2019-04-29T16:34:07.243Z,90.79
2019-04-29T16:36:43.790Z,90.69
2019-04-29T16:39:15.934Z,90.84
2019-04-29T16:42:01.377Z,90.52
2019-04-29T16:44:36.059Z,91.17
2019-04-29T16:47:13.058Z,91.52
2019-04-29T16:49:47.878Z,91.77
2019-04-29T16:52:22.959Z,92.12
2019-04-29T16:54:59.052Z,91.89
2019-04-29T16:57:35.518Z,91.85
2019-04-29T17:00:18.195Z,91.76
2019-04-29T17:02:52.143Z,92.26
2019-04-29T17:05:26.565Z,92.26
2019-04-29T17:08:09.401Z,92.55
2019-04-29T17:10:44.453Z,92.74
2019-04-29T17:13:24.062Z,92.85
2019-04-29T17:15:57.273Z,92.71
2019-04-29T17:18:34.699Z,92.85
2019-04-29T17:21:12.292Z,92.85
2019-04-29T17:23:45.579Z,92.73
2019-04-29T17:26:18.094Z,92.66
2019-04-29T17:28:58.832Z,92.87
2019-04-29T17:31:55.941Z,93.35
2019-04-29T17:34:55.829Z,93.98
2019-04-29T17:37:04.839Z,93.98
2019-04-29T17:39:38.838Z,93.95
2019-04-29T17:42:12.458Z,94.06
2019-04-29T17:44:46.519Z,94.06
2019-04-29T17:47:42.613Z,94.03
2019-04-29T17:50:31.575Z,94.23
2019-04-29T17:53:06.606Z,94.23
2019-04-29T17:55:45.356Z,94.45
2019-04-29T17:58:19.936Z,94.73
2019-04-29T18:01:00.312Z,95.04
2019-04-29T18:03:42.812Z,94.99
2019-04-29T18:06:24.323Z,94.99
2019-04-29T18:08:54.909Z,95.00
2019-04-29T18:11:30.039Z,94.72
2019-04-29T18:14:02.042Z,94.38
2019-04-29T18:16:39.562Z,94.26
2019-04-29T18:19:17.485Z,94.29
2019-04-29T18:22:08.639Z,94.03
2019-04-29T18:24:59.587Z,94.13
2019-04-29T18:27:38.226Z,94.45
2019-04-29T18:30:15.725Z,94.47
2019-04-29T18:32:49.535Z,94.72
2019-04-29T18:35:27.501Z,94.52
2019-04-29T18:38:01.251Z,94.46
2019-04-29T18:40:42.047Z,94.40
2019-04-29T18:43:11.714Z,94.56
2019-04-29T18:45:55.828Z,94.76
2019-04-29T18:48:21.552Z,95.07
2019-04-29T18:51:01.945Z,95.28
2019-04-29T18:53:38.894Z,95.09
2019-04-29T18:56:11.651Z,95.27
2019-04-29T18:58:50.106Z,95.34
2019-04-29T19:01:23.975Z,95.36
2019-04-29T19:04:04.782Z,95.45
2019-04-29T19:06:37.322Z,95.51
2019-04-29T19:09:17.823Z,95.40
2019-04-29T19:11:46.287Z,95.44
2019-04-29T19:14:20.648Z,95.54
2019-04-29T19:17:00.132Z,95.51
2019-04-29T19:19:35.804Z,95.46
2019-04-29T19:22:10.066Z,95.45
2019-04-29T19:24:48.037Z,95.72
2019-04-29T19:27:20.460Z,95.86
2019-04-29T19:29:55.026Z,95.97
2019-04-29T19:32:28.342Z,96.08
2019-04-29T19:35:01.625Z,95.96
2019-04-29T19:37:37.551Z,95.90
2019-04-29T19:40:08.861Z,95.90
2019-04-29T19:42:47.132Z,96.02
2019-04-29T19:45:21.957Z,95.83
2019-04-29T19:47:55.820Z,95.73
2019-04-29T19:50:29.372Z,95.83
2019-04-29T19:53:04.961Z,95.75
2019-04-29T19:55:43.216Z,95.82
2019-04-29T19:58:16.994Z,95.87
2019-04-29T20:00:52.749Z,95.90
2019-04-29T20:03:35.893Z,95.97
2019-04-29T20:06:08.551Z,96.00
2019-04-29T20:08:52.727Z,96.01
2019-04-29T20:11:17.374Z,95.93
2019-04-29T20:14:01.977Z,95.72
2019-04-29T20:16:43.307Z,95.53
2019-04-29T20:19:20.361Z,95.54
2019-04-29T20:21:51.318Z,95.59
2019-04-29T20:24:26.305Z,95.64
2019-04-29T20:27:00.164Z,95.89
2019-04-29T20:29:38.461Z,96.03
2019-04-29T20:32:09.757Z,96.15
2019-04-29T20:34:46.084Z,95.91
2019-04-29T20:37:19.874Z,95.87
2019-04-29T20:39:57.221Z,95.79
2019-04-29T20:42:29.889Z,95.81
2019-04-29T20:45:01.878Z,95.92
2019-04-29T20:47:40.174Z,96.41
2019-04-29T20:50:13.858Z,96.70
2019-04-29T20:52:46.125Z,96.90
2019-04-29T20:55:19.891Z,97.09
2019-04-29T20:57:54.092Z,97.31
2019-04-29T21:00:30.280Z,97.34
2019-04-29T21:03:08.672Z,97.67
2019-04-29T21:05:47.342Z,97.82
2019-04-29T21:08:16.454Z,98.06
2019-04-29T21:10:48.379Z,98.22
2019-04-29T21:13:28.374Z,98.48
2019-04-29T21:16:05.156Z,98.76
2019-04-29T21:18:39.499Z,99.23
2019-04-29T21:21:15.210Z,99.39
2019-04-29T21:23:48.327Z,99.61
2019-04-29T21:26:21.670Z,99.85
2019-04-29T21:28:55.414Z,99.88
2019-04-29T21:31:27.437Z,100.00
2019-04-29T21:33:59.247Z,100.00
2019-04-29T21:36:48.573Z,100.00
2019-04-29T21:39:25.243Z,100.00
2019-04-29T21:42:05.726Z,100.00
2019-04-29T21:44:40.086Z,100.00
2019-04-29T21:47:12.351Z,100.00
2019-04-29T21:49:49.605Z,100.00
2019-04-29T21:52:24.129Z,100.00
2019-04-29T21:54:54.601Z,100.00
2019-04-29T21:57:28.369Z,100.00
2019-04-29T22:00:00.643Z,100.00
2019-04-29T22:02:35.810Z,100.00
2019-04-29T22:05:14.883Z,100.00
2019-04-29T22:07:47.456Z,100.00
2019-04-29T22:10:25.226Z,100.00
2019-04-29T22:12:58.390Z,100.00
2019-04-29T22:15:32.447Z,100.00
2019-04-29T22:18:07.301Z,100.00
2019-04-29T22:20:42.154Z,100.00
2019-04-29T22:23:15.209Z,100.00
2019-04-29T22:25:47.257Z,100.00
2019-04-29T22:28:20.713Z,100.00
2019-04-29T22:30:54.923Z,100.00
2019-04-29T22:33:29.741Z,100.00
2019-04-29T22:36:01.647Z,100.00
2019-04-29T22:38:33.708Z,100.00
2019-04-29T22:41:07.079Z,100.00
2019-04-29T22:43:49.156Z,100.00
2019-04-29T22:46:22.645Z,100.00
2019-04-29T22:48:55.811Z,100.00
2019-04-29T22:51:29.595Z,100.00
2019-04-29T22:54:01.327Z,100.00
2019-04-29T22:56:33.566Z,100.00
2019-04-29T22:59:06.278Z,100.00
2019-04-29T23:01:50.485Z,100.00
2019-04-29T23:04:21.676Z,100.00
2019-04-29T23:06:57.168Z,100.00
2019-04-29T23:09:29.171Z,100.00
2019-04-29T23:12:01.004Z,100.00
2019-04-29T23:14:33.295Z,100.00
2019-04-29T23:17:12.087Z,100.00
2019-04-29T23:19:39.825Z,100.00
2019-04-29T23:22:30.088Z,100.00
2019-04-29T23:25:03.520Z,100.00
2019-04-29T23:27:36.117Z,100.00
2019-04-29T23:30:08.778Z,100.00
2019-04-29T23:32:44.263Z,100.00
2019-04-29T23:35:14.864Z,100.00
2019-04-29T23:37:47.087Z,100.00
2019-04-29T23:40:20.074Z,100.00
2019-04-29T23:42:51.771Z,100.00
2019-04-29T23:45:25.240Z,100.00
2019-04-29T23:47:57.292Z,100.00
2019-04-29T23:50:29.147Z,100.00
2019-04-29T23:53:02.558Z,100.00
2019-04-29T23:55:35.985Z,100.00
2019-04-29T23:58:18.514Z,100.00
